sensor_id;sensor_type;location;lat;lon;timestamp;pressure;altitude;pressure_sealevel;temperature;humidity
79316;BME280;68779;50.036;19.964;2024-03-08T00:36:30;102392.15;;;7.42;49.86
79316;BME280;68779;50.036;19.964;2024-03-08T01:06:47;102373.80;;;6.83;50.75
79316;BME280;68779;50.036;19.964;2024-03-08T01:37:03;102355.39;;;7.53;48.80
79316;BME280;68779;50.036;19.964;2024-03-08T02:07:19;102330.93;;;7.55;49.16
79316;BME280;68779;50.036;19.964;2024-03-08T02:37:35;102317.26;;;7.42;49.14
79316;BME280;68779;50.036;19.964;2024-03-08T03:07:52;102327.55;;;7.51;48.30
79316;BME280;68779;50.036;19.964;2024-03-08T03:38:08;102324.40;;;7.43;48.15
79316;BME280;68779;50.036;19.964;2024-03-08T04:08:24;102301.23;;;7.69;48.41
79316;BME280;68779;50.036;19.964;2024-03-08T04:38:41;102315.41;;;6.96;49.92
79316;BME280;68779;50.036;19.964;2024-03-08T05:08:57;102334.91;;;6.85;50.07
79316;BME280;68779;50.036;19.964;2024-03-08T05:39:13;102327.02;;;7.14;49.55
79316;BME280;68779;50.036;19.964;2024-03-08T06:09:36;102335.92;;;7.16;49.31
79316;BME280;68779;50.036;19.964;2024-03-08T06:39:50;102337.04;;;7.43;48.60
79316;BME280;68779;50.036;19.964;2024-03-08T07:10:08;102340.84;;;6.76;50.52
79316;BME280;68779;50.036;19.964;2024-03-08T07:40:24;102341.39;;;6.33;51.33
79316;BME280;68779;50.036;19.964;2024-03-08T08:10:38;102318.18;;;7.57;48.10
79316;BME280;68779;50.036;19.964;2024-03-08T08:40:52;102325.43;;;8.02;47.11
79316;BME280;68779;50.036;19.964;2024-03-08T09:11:11;102329.31;;;8.27;47.25
79316;BME280;68779;50.036;19.964;2024-03-08T09:41:27;102307.09;;;8.51;46.24
79316;BME280;68779;50.036;19.964;2024-03-08T10:11:42;102290.72;;;8.80;45.22
79316;BME280;68779;50.036;19.964;2024-03-08T10:41:58;102281.48;;;10.04;42.86
79316;BME280;68779;50.036;19.964;2024-03-08T11:42:49;102140.28;;;34.99;12.95
79316;BME280;68779;50.036;19.964;2024-03-08T12:13:09;102135.37;;;28.06;17.49
79316;BME280;68779;50.036;19.964;2024-03-08T12:43:27;102113.09;;;27.93;17.71
79316;BME280;68779;50.036;19.964;2024-03-08T13:13:48;102098.63;;;22.39;23.49
79316;BME280;68779;50.036;19.964;2024-03-08T13:44:01;102086.35;;;19.32;27.24
79316;BME280;68779;50.036;19.964;2024-03-08T14:14:15;102072.45;;;18.08;27.09
79316;BME280;68779;50.036;19.964;2024-03-08T14:44:31;102059.64;;;17.48;29.20
79316;BME280;68779;50.036;19.964;2024-03-08T15:14:49;102038.23;;;15.05;32.33
79316;BME280;68779;50.036;19.964;2024-03-08T15:45:06;102036.43;;;13.15;36.41
79316;BME280;68779;50.036;19.964;2024-03-08T16:15:25;102047.84;;;12.34;37.86
79316;BME280;68779;50.036;19.964;2024-03-08T16:45:40;102050.36;;;11.36;40.59
79316;BME280;68779;50.036;19.964;2024-03-08T17:15:57;102055.25;;;10.38;41.99
79316;BME280;68779;50.036;19.964;2024-03-08T17:46:13;102052.89;;;9.07;46.01
79316;BME280;68779;50.036;19.964;2024-03-08T18:33:15;101987.59;;;8.18;48.11
79316;BME280;68779;50.036;19.964;2024-03-08T19:03:31;101991.20;;;8.45;46.17
79316;BME280;68779;50.036;19.964;2024-03-08T19:33:51;101985.75;;;7.49;49.64
79316;BME280;68779;50.036;19.964;2024-03-08T20:04:05;101976.38;;;7.27;49.86
79316;BME280;68779;50.036;19.964;2024-03-08T20:34:20;101962.75;;;7.00;50.11
79316;BME280;68779;50.036;19.964;2024-03-08T21:35:13;101934.78;;;6.12;53.78
79316;BME280;68779;50.036;19.964;2024-03-08T22:05:32;101915.23;;;6.22;52.89
79316;BME280;68779;50.036;19.964;2024-03-08T22:35:54;101891.48;;;6.13;53.31
79316;BME280;68779;50.036;19.964;2024-03-08T23:06:08;101894.12;;;5.99;53.83
79316;BME280;68779;50.036;19.964;2024-03-08T23:36:28;101890.39;;;5.86;53.69
